Auburn, New Jersey
Current Conditions -  °F | °C
As of 3:54 AM on Friday 31 Oct 2014 (Local Time) from KPHL Reporting Station
Clear Clear  
Wind Chill: 39°   Ceiling: Unl
Heat Index: 42°   Visibility: 10mi
Dew Point: 33°   Wind: 5mph
Humidity: 70%   Direction: 340°NNW
Pressure: 30.02"   Gusts: NA
Location:  39.757°N, 75.3338°W
Report Text: KPHL 310754Z 34004KT 10SM CLR 06/01 A3002 RMK AO2 SLP164 T00560006
Loading
Personal Weather Stations






























Interactive Weather Map New forecast layout! Learn more

10-Day Weather Forecast

Advertisements
Track Severe Weather on mobile